| time (UTC) | temp C | wind direction | speed KPH | gust KPH | rain 1hr cm | rain 24hr cm | rain mn cm | humidity % | barometer mb |
| 20260906231123 | 22 | 183 | 1.6 | 9.7 | 0.00 | 0.00 | 0.00 | 71 | 1013.4 |
| 20260906230125 | 22 | 184 | 1.6 | 11.3 | 0.00 | 0.00 | 0.00 | 70 | 1013.4 |
| 20260906225122 | 23 | 207 | 1.6 | 12.9 | 0.00 | 0.00 | 0.00 | 68 | 1013.4 |
| 20260906224124 | 23 | 122 | 1.6 | 11.3 | 0.00 | 0.00 | 0.00 | 70 | 1013.5 |
| 20260906223122 | 22 | 168 | 3.2 | 12.9 | 0.00 | 0.00 | 0.00 | 70 | 1013.7 |
| 20260906222122 | 22 | 210 | 3.2 | 11.3 | 0.00 | 0.00 | 0.00 | 72 | 1013.8 |
| 20260906221123 | 22 | 189 | 1.6 | 9.7 | 0.00 | 0.00 | 0.00 | 70 | 1013.7 |
| 20260906220122 | 22 | 201 | 3.2 | 17.7 | 0.00 | 0.00 | 0.00 | 68 | 1013.7 |
| 20260906215123 | 22 | 191 | 4.8 | 12.9 | 0.00 | 0.00 | 0.00 | 69 | 1013.8 |
| 20260906214123 | 23 | 174 | 1.6 | 8.0 | 0.00 | 0.00 | 0.00 | 68 | 1013.9 |
| 20260906213124 | 23 | 190 | 3.2 | 8.0 | 0.00 | 0.00 | 0.00 | 68 | 1013.9 |
| 20260906212123 | 22 | 198 | 3.2 | 12.9 | 0.00 | 0.00 | 0.00 | 67 | 1014.0 |
| 20260906211125 | 22 | 197 | 6.4 | 17.7 | 0.00 | 0.00 | 0.00 | 66 | 1014.2 |
| 20260906210126 | 23 | 183 | 3.2 | 14.5 | 0.00 | 0.00 | 0.00 | 64 | 1014.2 |
| 20260906205123 | 23 | 180 | 3.2 | 12.9 | 0.00 | 0.00 | 0.00 | 66 | 1014.2 |
| 20260906204123 | 23 | 175 | 3.2 | 12.9 | 0.00 | 0.00 | 0.00 | 65 | 1014.4 |
| 20260906203122 | 22 | 174 | 3.2 | 14.5 | 0.00 | 0.00 | 0.00 | 67 | 1014.4 |
| 20260906202125 | 21 | 205 | 6.4 | 19.3 | 0.00 | 0.00 | 0.00 | 68 | 1014.5 |
| 20260906201122 | 22 | 185 | 4.8 | 17.7 | 0.00 | 0.00 | 0.00 | 64 | 1014.6 |
| 20260906200122 | 22 | 191 | 4.8 | 14.5 | 0.00 | 0.00 | 0.00 | 67 | 1014.6 |
| 20260906195122 | 21 | 199 | 6.4 | 19.3 | 0.00 | 0.00 | 0.00 | 68 | 1014.7 |
| 20260906194122 | 21 | 182 | 4.8 | 20.9 | 0.00 | 0.00 | 0.00 | 68 | 1014.8 |
| 20260906193123 | 21 | 189 | 4.8 | 14.5 | 0.00 | 0.00 | 0.00 | 66 | 1014.8 |
| 20260906192122 | 22 | 175 | 3.2 | 12.9 | 0.00 | 0.00 | 0.00 | 67 | 1015.1 |
| 20260906191126 | 22 | 183 | 3.2 | 12.9 | 0.00 | 0.00 | 0.00 | 64 | 1015.1 |
| 20260906190122 | 22 | 198 | 4.8 | 16.1 | 0.00 | 0.00 | 0.00 | 66 | 1015.1 |
| 20260906185123 | 22 | 167 | 3.2 | 12.9 | 0.00 | 0.00 | 0.00 | 65 | 1015.2 |
| 20260906184122 | 21 | 192 | 4.8 | 17.7 | 0.00 | 0.00 | 0.00 | 66 | 1015.4 |
| 20260906183143 | 22 | 189 | 3.2 | 14.5 | 0.00 | 0.00 | 0.00 | 65 | 1015.4 |
| 20260906182123 | 21 | 194 | 3.2 | 12.9 | 0.00 | 0.00 | 0.00 | 64 | 1015.4 |
| 20260906181122 | 22 | 182 | 3.2 | 14.5 | 0.00 | 0.00 | 0.00 | 63 | 1015.5 |
| 20260906180126 | 22 | 172 | 3.2 | 9.7 | 0.00 | 0.00 | 0.00 | 63 | 1015.5 |
| 20260906175124 | 22 | 187 | 1.6 | 6.4 | 0.00 | 0.00 | 0.00 | 64 | 1015.6 |
| 20260906174125 | 21 | 169 | 1.6 | 9.7 | 0.00 | 0.00 | 0.00 | 66 | 1015.6 |
| 20260906173144 | 21 | 173 | 1.6 | 6.4 | 0.00 | 0.00 | 0.00 | 67 | 1015.7 |
| 20260906172124 | 21 | 196 | 1.6 | 9.7 | 0.00 | 0.00 | 0.00 | 67 | 1015.9 |
| 20260906171125 | 20 | 205 | 4.8 | 14.5 | 0.00 | 0.00 | 0.00 | 72 | 1015.9 |
| 20260906170144 | 18 | 190 | 3.2 | 14.5 | 0.00 | 0.00 | 0.00 | 73 | 1015.9 |
| 20260906165125 | 19 | 209 | 4.8 | 12.9 | 0.00 | 0.00 | 0.00 | 74 | 1016.1 |
| 20260906164124 | 19 | 195 | 4.8 | 14.5 | 0.00 | 0.00 | 0.00 | 73 | 1016.1 |
| 20260906163124 | 19 | 195 | 3.2 | 12.9 | 0.00 | 0.00 | 0.00 | 73 | 1016.0 |
| 20260906162123 | 20 | 191 | 1.6 | 9.7 | 0.00 | 0.00 | 0.00 | 71 | 1016.2 |
| 20260906161123 | 20 | 166 | 1.6 | 6.4 | 0.00 | 0.00 | 0.00 | 68 | 1016.2 |
| 20260906160126 | 21 | 180 | 0.0 | 4.8 | 0.00 | 0.00 | 0.00 | 67 | 1016.2 |
| 20260906155124 | 20 | 61 | 0.0 | 4.8 | 0.00 | 0.00 | 0.00 | 72 | 1016.1 |
| 20260906154125 | 22 | 55 | 1.6 | 4.8 | 0.00 | 0.00 | 0.00 | 64 | 1016.2 |
| 20260906153124 | 20 | 78 | 0.0 | 6.4 | 0.00 | 0.00 | 0.00 | 69 | 1016.2 |
| 20260906152123 | 19 | 49 | 0.0 | 4.8 | 0.00 | 0.00 | 0.00 | 73 | 1016.2 |
| 20260906151123 | 17 | 30 | 0.0 | 4.8 | 0.00 | 0.00 | 0.00 | 76 | 1016.2 |
| 20260906150124 | 17 | 50 | 0.0 | 4.8 | 0.00 | 0.00 | 0.00 | 78 | 1016.2 |
| 20260906145124 | 15 | 161 | 0.0 | 4.8 | 0.00 | 0.00 | 0.00 | 86 | 1016.2 |
| 20260906144123 | 14 | 23 | 0.0 | 0.0 | 0.00 | 0.00 | 0.00 | 90 | 1016.2 |
| 20260906143124 | 11 | 225 | 0.0 | 0.0 | 0.00 | 0.00 | 0.00 | 96 | 1016.2 |
| 20260906142124 | 10 | 23 | 0.0 | 0.0 | 0.00 | 0.00 | 0.00 | 99 | 1016.0 |
| 20260906141125 | 10 | 45 | 0.0 | 0.0 | 0.00 | 0.00 | 0.00 | 99 | 1016.0 |
| 20260906140145 | 10 | 90 | 0.0 | 0.0 | 0.00 | 0.00 | 0.00 | 99 | 1016.1 |
| 20260906135123 | 10 | 113 | 0.0 | 0.0 | 0.00 | 0.00 | 0.00 | 99 | 1016.1 |
| 20260906134147 | 10 | 203 | 0.0 | 0.0 | 0.00 | 0.00 | 0.00 | 99 | 1016.1 |
| 20260906133124 | 10 | 225 | 0.0 | 0.0 | 0.00 | 0.00 | 0.00 | 99 | 1016.1 |
| 20260906132125 | 10 | 180 | 0.0 | 0.0 | 0.00 | 0.00 | 0.00 | 99 | 1016.2 |
| 20260906131123 | 10 | 90 | 0.0 | 0.0 | 0.00 | 0.00 | 0.00 | 99 | 1016.1 |
| 20260906130126 | 10 | 113 | 0.0 | 0.0 | 0.00 | 0.00 | 0.00 | 99 | 1016.2 |
| 20260906125144 | 10 | 68 | 0.0 | 0.0 | 0.00 | 0.00 | 0.00 | 99 | 1016.2 |
| 20260906124124 | 10 | 113 | 0.0 | 0.0 | 0.00 | 0.00 | 0.00 | 99 | 1016.2 |
| 20260906123124 | 10 | 68 | 0.0 | 0.0 | 0.00 | 0.00 | 0.00 | 99 | 1016.2 |
| 20260906122123 | 10 | 158 | 0.0 | 0.0 | 0.00 | 0.00 | 0.00 | 99 | 1016.2 |
| 20260906121127 | 10 | 158 | 0.0 | 0.0 | 0.00 | 0.00 | 0.00 | 98 | 1016.2 |
| 20260906120124 | 10 | 203 | 0.0 | 0.0 | 0.00 | 0.00 | 0.00 | 98 | 1016.1 |
| 20260906115125 | 10 | 180 | 0.0 | 0.0 | 0.00 | 0.00 | 0.00 | 97 | 1016.1 |
| 20260906114124 | 11 | 23 | 0.0 | 0.0 | 0.00 | 0.00 | 0.00 | 97 | 1016.1 |
| 20260906113144 | 11 | 90 | 0.0 | 0.0 | 0.00 | 0.00 | 0.00 | 96 | 1016.1 |
| 20260906112123 | 10 | 225 | 0.0 | 0.0 | 0.00 | 0.00 | 0.00 | 96 | 1016.1 |
| 20260906111124 | 11 | 203 | 0.0 | 0.0 | 0.00 | 0.00 | 0.00 | 96 | 1016.0 |
| 20260906110146 | 11 | 225 | 0.0 | 0.0 | 0.00 | 0.00 | 0.00 | 95 | 1016.1 |
| 20260906105144 | 11 | 113 | 0.0 | 0.0 | 0.00 | 0.00 | 0.00 | 95 | 1016.1 |
| 20260906104146 | 11 | 41 | 0.0 | 4.8 | 0.00 | 0.00 | 0.00 | 95 | 1016.1 |
| 20260906103123 | 11 | 270 | 0.0 | 3.2 | 0.00 | 0.00 | 0.00 | 95 | 1016.2 |
| 20260906102123 | 11 | 180 | 0.0 | 3.2 | 0.00 | 0.00 | 0.00 | 95 | 1016.2 |
| 20260906101123 | 11 | 293 | 0.0 | 0.0 | 0.00 | 0.00 | 0.00 | 94 | 1016.4 |
| 20260906100124 | 11 | 68 | 0.0 | 0.0 | 0.00 | 0.00 | 0.00 | 95 | 1016.2 |
| 20260906095147 | 11 | 203 | 0.0 | 0.0 | 0.00 | 0.00 | 0.00 | 94 | 1016.2 |
| 20260906094123 | 11 | 90 | 0.0 | 0.0 | 0.00 | 0.00 | 0.00 | 93 | 1016.4 |
| 20260906093146 | 11 | 113 | 0.0 | 0.0 | 0.00 | 0.00 | 0.00 | 93 | 1016.4 |
| 20260906092123 | 11 | 113 | 0.0 | 0.0 | 0.00 | 0.00 | 0.00 | 92 | 1016.5 |
| 20260906091126 | 11 | 158 | 0.0 | 0.0 | 0.00 | 0.00 | 0.00 | 92 | 1016.6 |
| 20260906090123 | 11 | 225 | 0.0 | 0.0 | 0.00 | 0.00 | 0.00 | 92 | 1016.6 |
| 20260906085123 | 11 | 23 | 0.0 | 0.0 | 0.00 | 0.00 | 0.00 | 92 | 1016.6 |
| 20260906084124 | 12 | 360 | 0.0 | 0.0 | 0.00 | 0.00 | 0.00 | 92 | 1016.7 |
| 20260906083124 | 12 | 248 | 0.0 | 0.0 | 0.00 | 0.00 | 0.00 | 89 | 1016.6 |
| 20260906082126 | 12 | 225 | 0.0 | 4.8 | 0.00 | 0.00 | 0.00 | 89 | 1016.6 |
| 20260906081123 | 12 | 270 | 0.0 | 0.0 | 0.00 | 0.00 | 0.00 | 89 | 1016.5 |
| 20260906080125 | 13 | 23 | 0.0 | 0.0 | 0.00 | 0.00 | 0.00 | 87 | 1016.6 |
| 20260906075123 | 13 | 202 | 0.0 | 3.2 | 0.00 | 0.00 | 0.00 | 85 | 1016.6 |
| 20260906074124 | 14 | 176 | 0.0 | 4.8 | 0.00 | 0.00 | 0.00 | 83 | 1016.5 |
| 20260906073124 | 14 | 126 | 3.2 | 12.9 | 0.00 | 0.00 | 0.00 | 82 | 1016.7 |
| 20260906072123 | 13 | 160 | 0.0 | 4.8 | 0.00 | 0.00 | 0.00 | 86 | 1016.7 |
| 20260906071147 | 13 | 194 | 0.0 | 4.8 | 0.00 | 0.00 | 0.00 | 86 | 1016.8 |
| 20260906070124 | 13 | 51 | 0.0 | 4.8 | 0.00 | 0.00 | 0.00 | 85 | 1016.8 |
| 20260906065125 | 14 | 166 | 1.6 | 6.4 | 0.00 | 0.00 | 0.00 | 84 | 1016.8 |
| 20260906064123 | 14 | 92 | 1.6 | 8.0 | 0.00 | 0.00 | 0.00 | 85 | 1016.7 |
| 20260906063123 | 14 | 211 | 1.6 | 4.8 | 0.00 | 0.00 | 0.00 | 83 | 1016.6 |
| 20260906062123 | 14 | 172 | 1.6 | 6.4 | 0.00 | 0.00 | 0.00 | 85 | 1016.7 |
| 20260906061124 | 14 | 145 | 1.6 | 4.8 | 0.00 | 0.00 | 0.00 | 86 | 1016.6 |
| 20260906060125 | 13 | 156 | 0.0 | 6.4 | 0.00 | 0.00 | 0.00 | 89 | 1016.7 |
| 20260906055123 | 13 | 180 | 0.0 | 0.0 | 0.00 | 0.00 | 0.00 | 89 | 1016.7 |
| 20260906054147 | 14 | 199 | 1.6 | 6.4 | 0.00 | 0.00 | 0.00 | 87 | 1016.7 |
| 20260906053123 | 13 | 200 | 0.0 | 4.8 | 0.00 | 0.00 | 0.00 | 89 | 1016.6 |
| 20260906052123 | 14 | 225 | 0.0 | 0.0 | 0.00 | 0.00 | 0.00 | 87 | 1016.7 |
| 20260906051144 | 15 | 165 | 1.6 | 6.4 | 0.00 | 0.00 | 0.00 | 84 | 1016.7 |
| 20260906050123 | 15 | 176 | 3.2 | 11.3 | 0.00 | 0.00 | 0.00 | 81 | 1016.8 |
| 20260906045147 | 15 | 185 | 1.6 | 8.0 | 0.00 | 0.00 | 0.00 | 83 | 1016.8 |
| 20260906044123 | 15 | 156 | 1.6 | 6.4 | 0.00 | 0.00 | 0.00 | 83 | 1016.8 |
| 20260906043126 | 15 | 162 | 1.6 | 9.7 | 0.00 | 0.00 | 0.00 | 82 | 1016.9 |
| 20260906042123 | 15 | 141 | 3.2 | 12.9 | 0.00 | 0.00 | 0.00 | 83 | 1016.8 |
| 20260906041126 | 14 | 168 | 1.6 | 12.9 | 0.00 | 0.00 | 0.00 | 85 | 1016.8 |
| 20260906040123 | 13 | 184 | 1.6 | 4.8 | 0.00 | 0.00 | 0.00 | 90 | 1016.7 |
| 20260906035126 | 13 | 180 | 0.0 | 0.0 | 0.00 | 0.00 | 0.00 | 90 | 1016.7 |
| 20260906034125 | 13 | 240 | 0.0 | 3.2 | 0.00 | 0.00 | 0.00 | 89 | 1016.7 |
| 20260906033123 | 13 | 135 | 0.0 | 3.2 | 0.00 | 0.00 | 0.00 | 89 | 1016.6 |
| 20260906032147 | 14 | 135 | 0.0 | 0.0 | 0.00 | 0.00 | 0.00 | 89 | 1016.5 |
| 20260906031123 | 14 | 158 | 0.0 | 0.0 | 0.00 | 0.00 | 0.00 | 89 | 1016.6 |
| 20260906030125 | 14 | 113 | 0.0 | 0.0 | 0.00 | 0.00 | 0.00 | 90 | 1016.6 |
| 20260906025123 | 14 | 113 | 0.0 | 0.0 | 0.00 | 0.00 | 0.00 | 89 | 1016.6 |
| 20260906024124 | 15 | 135 | 0.0 | 0.0 | 0.00 | 0.00 | 0.00 | 89 | 1016.6 |
| 20260906023124 | 15 | 113 | 0.0 | 0.0 | 0.00 | 0.00 | 0.00 | 88 | 1016.7 |
| 20260906022123 | 15 | 113 | 0.0 | 0.0 | 0.00 | 0.00 | 0.00 | 87 | 1016.5 |
| 20260906021125 | 15 | 45 | 0.0 | 3.2 | 0.00 | 0.00 | 0.00 | 87 | 1016.5 |
| 20260906020123 | 16 | 113 | 0.0 | 0.0 | 0.00 | 0.00 | 0.00 | 86 | 1016.5 |
| 20260906015126 | 16 | 135 | 0.0 | 0.0 | 0.00 | 0.00 | 0.00 | 85 | 1016.5 |
| 20260906014123 | 16 | 68 | 0.0 | 0.0 | 0.00 | 0.00 | 0.00 | 84 | 1016.2 |
| 20260906013144 | 17 | 348 | 0.0 | 4.8 | 0.00 | 0.00 | 0.00 | 82 | 1016.2 |
| 20260906012144 | 17 | 90 | 0.0 | 0.0 | 0.00 | 0.00 | 0.00 | 81 | 1015.9 |
| 20260906011123 | 18 | 113 | 0.0 | 0.0 | 0.00 | 0.00 | 0.00 | 79 | 1016.0 |
| 20260906010146 | 18 | 14 | 0.0 | 4.8 | 0.00 | 0.00 | 0.00 | 74 | 1015.8 |
| 20260906005123 | 18 | 225 | 0.0 | 0.0 | 0.00 | 0.00 | 0.00 | 75 | 1015.8 |
| 20260906004125 | 19 | 128 | 0.0 | 4.8 | 0.00 | 0.00 | 0.00 | 71 | 1015.9 |
| 20260906003144 | 19 | 134 | 0.0 | 4.8 | 0.00 | 0.00 | 0.00 | 71 | 1015.9 |
| 20260906002147 | 20 | 185 | 1.6 | 9.7 | 0.00 | 0.00 | 0.00 | 71 | 1016.0 |
| 20260906001132 | 20 | 158 | 1.6 | 6.4 | 0.00 | 0.00 | 0.00 | 69 | 1015.9 |
| 20260906001123 | 20 | 152 | 1.6 | 6.4 | 0.00 | 0.00 | 0.00 | 69 | 1015.9 |
| 20260906000122 | 20 | 202 | 3.2 | 16.1 | 0.00 | 0.00 | 0.00 | 68 | 1015.9 |
| 20260905235126 | 20 | 189 | 3.2 | 11.3 | 0.00 | 0.00 | 0.00 | 67 | 1015.9 |
| 20260905234123 | 20 | 176 | 3.2 | 12.9 | 0.00 | 0.00 | 0.00 | 67 | 1015.9 |
| 20260905233125 | 20 | 188 | 3.2 | 12.9 | 0.00 | 0.00 | 0.00 | 69 | 1015.9 |
| 20260905232124 | 20 | 195 | 4.8 | 12.9 | 0.00 | 0.00 | 0.00 | 68 | 1016.0 |